sensor_id;sensor_type;location;lat;lon;timestamp;P1;durP1;ratioP1;P2;durP2;ratioP2
8397;SDS011;4236;54.504;9.588;2023-08-20T00:02:12;156.40;;;147.77;;
8397;SDS011;4236;54.504;9.588;2023-08-20T00:04:40;157.13;;;146.80;;
8397;SDS011;4236;54.504;9.588;2023-08-20T00:07:13;172.70;;;161.77;;
8397;SDS011;4236;54.504;9.588;2023-08-20T00:09:45;163.97;;;155.30;;
8397;SDS011;4236;54.504;9.588;2023-08-20T00:12:13;170.37;;;161.23;;
8397;SDS011;4236;54.504;9.588;2023-08-20T00:14:54;164.43;;;155.93;;
8397;SDS011;4236;54.504;9.588;2023-08-20T00:17:25;163.70;;;155.17;;
8397;SDS011;4236;54.504;9.588;2023-08-20T00:19:53;159.90;;;149.93;;
8397;SDS011;4236;54.504;9.588;2023-08-20T00:22:22;164.17;;;154.07;;
8397;SDS011;4236;54.504;9.588;2023-08-20T00:24:52;164.63;;;154.73;;
8397;SDS011;4236;54.504;9.588;2023-08-20T00:27:21;161.57;;;152.50;;
8397;SDS011;4236;54.504;9.588;2023-08-20T00:29:49;160.47;;;151.20;;
8397;SDS011;4236;54.504;9.588;2023-08-20T00:32:16;164.30;;;156.27;;
8397;SDS011;4236;54.504;9.588;2023-08-20T00:34:44;164.93;;;156.60;;
8397;SDS011;4236;54.504;9.588;2023-08-20T00:37:12;175.40;;;165.87;;
8397;SDS011;4236;54.504;9.588;2023-08-20T00:39:40;174.97;;;164.80;;
8397;SDS011;4236;54.504;9.588;2023-08-20T00:42:09;172.87;;;163.37;;
8397;SDS011;4236;54.504;9.588;2023-08-20T00:44:37;177.80;;;167.77;;
8397;SDS011;4236;54.504;9.588;2023-08-20T00:47:04;170.50;;;162.17;;
8397;SDS011;4236;54.504;9.588;2023-08-20T00:49:33;174.13;;;164.53;;
8397;SDS011;4236;54.504;9.588;2023-08-20T00:52:01;188.10;;;177.70;;
8397;SDS011;4236;54.504;9.588;2023-08-20T00:54:29;182.77;;;172.13;;
8397;SDS011;4236;54.504;9.588;2023-08-20T00:56:59;174.13;;;165.30;;
8397;SDS011;4236;54.504;9.588;2023-08-20T00:59:30;172.77;;;164.30;;
8397;SDS011;4236;54.504;9.588;2023-08-20T01:02:00;178.53;;;168.97;;
8397;SDS011;4236;54.504;9.588;2023-08-20T01:04:29;174.00;;;165.43;;
8397;SDS011;4236;54.504;9.588;2023-08-20T01:07:01;175.93;;;168.03;;
8397;SDS011;4236;54.504;9.588;2023-08-20T01:09:37;180.83;;;170.90;;
8397;SDS011;4236;54.504;9.588;2023-08-20T01:12:16;173.50;;;165.13;;
8397;SDS011;4236;54.504;9.588;2023-08-20T01:14:46;176.43;;;168.00;;
8397;SDS011;4236;54.504;9.588;2023-08-20T01:17:13;173.83;;;165.97;;
8397;SDS011;4236;54.504;9.588;2023-08-20T01:19:41;177.47;;;170.00;;
8397;SDS011;4236;54.504;9.588;2023-08-20T01:22:21;173.00;;;165.63;;
8397;SDS011;4236;54.504;9.588;2023-08-20T01:25:10;175.13;;;166.87;;
8397;SDS011;4236;54.504;9.588;2023-08-20T01:27:49;169.43;;;162.23;;
8397;SDS011;4236;54.504;9.588;2023-08-20T01:30:26;184.67;;;176.40;;
8397;SDS011;4236;54.504;9.588;2023-08-20T01:32:55;168.20;;;161.10;;
8397;SDS011;4236;54.504;9.588;2023-08-20T01:35:24;176.40;;;169.13;;
8397;SDS011;4236;54.504;9.588;2023-08-20T01:37:52;171.37;;;164.63;;
8397;SDS011;4236;54.504;9.588;2023-08-20T01:40:20;172.73;;;165.37;;
8397;SDS011;4236;54.504;9.588;2023-08-20T01:42:48;178.60;;;170.03;;
8397;SDS011;4236;54.504;9.588;2023-08-20T01:45:15;175.03;;;167.10;;
8397;SDS011;4236;54.504;9.588;2023-08-20T01:47:45;167.40;;;160.43;;
8397;SDS011;4236;54.504;9.588;2023-08-20T01:50:13;173.43;;;165.93;;
8397;SDS011;4236;54.504;9.588;2023-08-20T01:52:41;161.43;;;154.53;;
8397;SDS011;4236;54.504;9.588;2023-08-20T01:55:08;164.97;;;158.20;;
8397;SDS011;4236;54.504;9.588;2023-08-20T01:57:36;169.17;;;161.17;;
8397;SDS011;4236;54.504;9.588;2023-08-20T02:00:05;170.00;;;162.53;;
8397;SDS011;4236;54.504;9.588;2023-08-20T02:02:34;168.43;;;160.30;;
8397;SDS011;4236;54.504;9.588;2023-08-20T02:05:03;168.30;;;160.60;;
8397;SDS011;4236;54.504;9.588;2023-08-20T02:07:31;158.93;;;151.77;;
8397;SDS011;4236;54.504;9.588;2023-08-20T02:09:59;158.33;;;151.60;;
8397;SDS011;4236;54.504;9.588;2023-08-20T02:12:28;155.07;;;148.27;;
8397;SDS011;4236;54.504;9.588;2023-08-20T02:14:56;165.60;;;157.90;;
8397;SDS011;4236;54.504;9.588;2023-08-20T02:17:23;159.87;;;152.07;;
8397;SDS011;4236;54.504;9.588;2023-08-20T02:19:51;181.37;;;170.43;;
8397;SDS011;4236;54.504;9.588;2023-08-20T02:22:20;164.67;;;156.73;;
8397;SDS011;4236;54.504;9.588;2023-08-20T02:24:48;170.30;;;159.87;;
8397;SDS011;4236;54.504;9.588;2023-08-20T02:27:15;176.90;;;168.93;;
8397;SDS011;4236;54.504;9.588;2023-08-20T02:29:43;167.70;;;159.97;;
8397;SDS011;4236;54.504;9.588;2023-08-20T02:32:11;169.17;;;161.43;;
8397;SDS011;4236;54.504;9.588;2023-08-20T02:34:39;167.83;;;159.40;;
8397;SDS011;4236;54.504;9.588;2023-08-20T02:37:07;186.73;;;173.13;;
8397;SDS011;4236;54.504;9.588;2023-08-20T02:39:36;165.60;;;157.80;;
8397;SDS011;4236;54.504;9.588;2023-08-20T02:42:03;177.50;;;168.43;;
8397;SDS011;4236;54.504;9.588;2023-08-20T02:44:31;171.50;;;164.30;;
8397;SDS011;4236;54.504;9.588;2023-08-20T02:46:59;178.53;;;170.83;;
8397;SDS011;4236;54.504;9.588;2023-08-20T02:49:26;174.50;;;167.00;;
8397;SDS011;4236;54.504;9.588;2023-08-20T02:51:54;179.30;;;171.70;;
8397;SDS011;4236;54.504;9.588;2023-08-20T02:54:22;182.10;;;174.43;;
8397;SDS011;4236;54.504;9.588;2023-08-20T02:56:51;173.60;;;166.30;;
8397;SDS011;4236;54.504;9.588;2023-08-20T02:59:18;184.13;;;175.43;;
8397;SDS011;4236;54.504;9.588;2023-08-20T03:01:46;179.80;;;172.70;;
8397;SDS011;4236;54.504;9.588;2023-08-20T03:04:15;179.43;;;172.47;;
8397;SDS011;4236;54.504;9.588;2023-08-20T03:06:42;165.53;;;158.87;;
8397;SDS011;4236;54.504;9.588;2023-08-20T03:09:10;165.83;;;159.53;;
8397;SDS011;4236;54.504;9.588;2023-08-20T03:11:38;168.83;;;161.47;;
8397;SDS011;4236;54.504;9.588;2023-08-20T03:14:07;175.67;;;167.43;;
8397;SDS011;4236;54.504;9.588;2023-08-20T03:16:35;173.40;;;165.90;;
8397;SDS011;4236;54.504;9.588;2023-08-20T03:19:03;178.80;;;170.30;;
8397;SDS011;4236;54.504;9.588;2023-08-20T03:21:31;166.57;;;159.10;;
8397;SDS011;4236;54.504;9.588;2023-08-20T03:23:59;170.33;;;162.83;;
8397;SDS011;4236;54.504;9.588;2023-08-20T03:26:26;167.97;;;161.03;;
8397;SDS011;4236;54.504;9.588;2023-08-20T03:28:54;169.00;;;161.87;;
8397;SDS011;4236;54.504;9.588;2023-08-20T03:31:23;166.17;;;159.27;;
8397;SDS011;4236;54.504;9.588;2023-08-20T03:33:51;169.37;;;161.53;;
8397;SDS011;4236;54.504;9.588;2023-08-20T03:36:18;175.50;;;167.40;;
8397;SDS011;4236;54.504;9.588;2023-08-20T03:38:46;167.60;;;159.80;;
8397;SDS011;4236;54.504;9.588;2023-08-20T03:41:14;163.83;;;157.20;;
8397;SDS011;4236;54.504;9.588;2023-08-20T03:43:41;164.50;;;156.80;;
8397;SDS011;4236;54.504;9.588;2023-08-20T03:46:09;169.90;;;162.57;;
8397;SDS011;4236;54.504;9.588;2023-08-20T03:48:38;157.87;;;151.07;;
8397;SDS011;4236;54.504;9.588;2023-08-20T03:51:06;165.47;;;158.30;;
8397;SDS011;4236;54.504;9.588;2023-08-20T03:53:33;166.97;;;159.57;;
8397;SDS011;4236;54.504;9.588;2023-08-20T03:56:01;162.70;;;154.90;;
8397;SDS011;4236;54.504;9.588;2023-08-20T03:58:29;176.67;;;169.03;;
8397;SDS011;4236;54.504;9.588;2023-08-20T04:00:57;175.60;;;167.60;;
8397;SDS011;4236;54.504;9.588;2023-08-20T04:03:25;175.97;;;168.00;;
8397;SDS011;4236;54.504;9.588;2023-08-20T04:05:54;175.47;;;167.23;;
8397;SDS011;4236;54.504;9.588;2023-08-20T04:08:21;183.30;;;173.10;;
8397;SDS011;4236;54.504;9.588;2023-08-20T04:10:49;172.00;;;163.33;;
8397;SDS011;4236;54.504;9.588;2023-08-20T04:13:17;176.97;;;167.53;;
8397;SDS011;4236;54.504;9.588;2023-08-20T04:15:45;168.20;;;157.70;;
8397;SDS011;4236;54.504;9.588;2023-08-20T04:18:12;173.67;;;160.43;;
8397;SDS011;4236;54.504;9.588;2023-08-20T04:20:40;173.57;;;164.27;;
8397;SDS011;4236;54.504;9.588;2023-08-20T04:23:10;177.60;;;165.30;;
8397;SDS011;4236;54.504;9.588;2023-08-20T04:25:38;171.30;;;162.40;;
8397;SDS011;4236;54.504;9.588;2023-08-20T04:28:06;171.33;;;162.37;;
8397;SDS011;4236;54.504;9.588;2023-08-20T04:30:34;164.03;;;156.20;;
8397;SDS011;4236;54.504;9.588;2023-08-20T04:33:02;167.33;;;159.70;;
8397;SDS011;4236;54.504;9.588;2023-08-20T04:35:30;187.77;;;169.87;;
8397;SDS011;4236;54.504;9.588;2023-08-20T04:37:58;170.63;;;159.53;;
8397;SDS011;4236;54.504;9.588;2023-08-20T04:40:27;164.40;;;154.83;;
8397;SDS011;4236;54.504;9.588;2023-08-20T04:42:55;171.27;;;163.33;;
8397;SDS011;4236;54.504;9.588;2023-08-20T04:45:22;168.50;;;159.40;;
8397;SDS011;4236;54.504;9.588;2023-08-20T04:47:50;179.87;;;167.77;;
8397;SDS011;4236;54.504;9.588;2023-08-20T04:50:18;174.90;;;162.90;;
8397;SDS011;4236;54.504;9.588;2023-08-20T04:52:47;184.13;;;169.53;;
8397;SDS011;4236;54.504;9.588;2023-08-20T04:55:15;173.80;;;164.87;;
8397;SDS011;4236;54.504;9.588;2023-08-20T04:57:44;178.67;;;168.60;;
8397;SDS011;4236;54.504;9.588;2023-08-20T05:00:11;173.37;;;164.53;;
8397;SDS011;4236;54.504;9.588;2023-08-20T05:02:39;172.13;;;163.37;;
8397;SDS011;4236;54.504;9.588;2023-08-20T05:05:07;182.27;;;170.63;;
8397;SDS011;4236;54.504;9.588;2023-08-20T05:07:35;178.13;;;170.50;;
8397;SDS011;4236;54.504;9.588;2023-08-20T05:10:03;189.50;;;176.40;;
8397;SDS011;4236;54.504;9.588;2023-08-20T05:12:31;183.83;;;176.13;;
8397;SDS011;4236;54.504;9.588;2023-08-20T05:15:01;174.87;;;166.47;;
8397;SDS011;4236;54.504;9.588;2023-08-20T05:17:29;178.77;;;171.20;;
8397;SDS011;4236;54.504;9.588;2023-08-20T05:19:56;188.27;;;179.67;;
8397;SDS011;4236;54.504;9.588;2023-08-20T05:22:24;177.50;;;170.67;;
8397;SDS011;4236;54.504;9.588;2023-08-20T05:24:52;176.57;;;168.97;;
8397;SDS011;4236;54.504;9.588;2023-08-20T05:27:19;197.33;;;183.73;;
8397;SDS011;4236;54.504;9.588;2023-08-20T05:29:47;194.70;;;187.17;;
8397;SDS011;4236;54.504;9.588;2023-08-20T05:32:16;190.00;;;181.73;;
8397;SDS011;4236;54.504;9.588;2023-08-20T05:34:44;190.17;;;182.00;;
8397;SDS011;4236;54.504;9.588;2023-08-20T05:37:11;181.83;;;174.73;;
8397;SDS011;4236;54.504;9.588;2023-08-20T05:39:40;174.30;;;166.37;;
8397;SDS011;4236;54.504;9.588;2023-08-20T05:42:08;184.83;;;177.77;;
8397;SDS011;4236;54.504;9.588;2023-08-20T05:44:36;197.93;;;188.60;;
8397;SDS011;4236;54.504;9.588;2023-08-20T05:47:04;194.73;;;186.60;;
8397;SDS011;4236;54.504;9.588;2023-08-20T05:49:33;176.17;;;169.60;;
8397;SDS011;4236;54.504;9.588;2023-08-20T05:52:02;168.00;;;161.50;;
8397;SDS011;4236;54.504;9.588;2023-08-20T05:54:30;179.00;;;170.10;;
8397;SDS011;4236;54.504;9.588;2023-08-20T05:56:58;171.00;;;165.17;;
8397;SDS011;4236;54.504;9.588;2023-08-20T05:59:25;168.53;;;161.63;;
8397;SDS011;4236;54.504;9.588;2023-08-20T06:01:53;161.63;;;155.53;;
8397;SDS011;4236;54.504;9.588;2023-08-20T06:04:22;159.43;;;153.50;;
8397;SDS011;4236;54.504;9.588;2023-08-20T06:06:50;156.73;;;148.03;;
8397;SDS011;4236;54.504;9.588;2023-08-20T06:09:18;138.47;;;133.33;;
8397;SDS011;4236;54.504;9.588;2023-08-20T06:11:46;130.77;;;125.97;;
8397;SDS011;4236;54.504;9.588;2023-08-20T06:14:14;127.93;;;123.10;;
8397;SDS011;4236;54.504;9.588;2023-08-20T06:16:42;116.03;;;111.20;;
8397;SDS011;4236;54.504;9.588;2023-08-20T06:19:10;108.80;;;103.40;;
8397;SDS011;4236;54.504;9.588;2023-08-20T06:21:38;102.70;;;98.90;;
8397;SDS011;4236;54.504;9.588;2023-08-20T06:24:07;88.27;;;84.53;;
8397;SDS011;4236;54.504;9.588;2023-08-20T06:26:35;85.90;;;81.70;;
8397;SDS011;4236;54.504;9.588;2023-08-20T06:29:03;81.40;;;77.80;;
8397;SDS011;4236;54.504;9.588;2023-08-20T06:31:30;79.20;;;74.63;;
8397;SDS011;4236;54.504;9.588;2023-08-20T06:33:58;71.03;;;67.43;;
8397;SDS011;4236;54.504;9.588;2023-08-20T06:36:26;61.47;;;57.53;;
8397;SDS011;4236;54.504;9.588;2023-08-20T06:38:54;65.07;;;61.23;;
8397;SDS011;4236;54.504;9.588;2023-08-20T06:41:23;59.47;;;55.93;;
8397;SDS011;4236;54.504;9.588;2023-08-20T06:43:50;57.50;;;54.03;;
8397;SDS011;4236;54.504;9.588;2023-08-20T06:46:18;56.23;;;52.97;;
8397;SDS011;4236;54.504;9.588;2023-08-20T06:48:46;53.80;;;50.60;;
8397;SDS011;4236;54.504;9.588;2023-08-20T06:51:13;62.93;;;58.10;;
8397;SDS011;4236;54.504;9.588;2023-08-20T06:53:42;62.27;;;58.10;;
8397;SDS011;4236;54.504;9.588;2023-08-20T06:56:10;59.03;;;54.87;;
8397;SDS011;4236;54.504;9.588;2023-08-20T06:58:40;59.93;;;55.60;;
8397;SDS011;4236;54.504;9.588;2023-08-20T07:01:08;62.57;;;57.87;;
8397;SDS011;4236;54.504;9.588;2023-08-20T07:03:39;56.00;;;52.43;;
8397;SDS011;4236;54.504;9.588;2023-08-20T07:06:08;62.90;;;58.33;;
8397;SDS011;4236;54.504;9.588;2023-08-20T07:08:37;58.87;;;55.10;;
8397;SDS011;4236;54.504;9.588;2023-08-20T07:11:06;58.93;;;54.60;;
8397;SDS011;4236;54.504;9.588;2023-08-20T07:13:33;62.13;;;58.10;;
8397;SDS011;4236;54.504;9.588;2023-08-20T07:16:03;63.83;;;59.60;;
8397;SDS011;4236;54.504;9.588;2023-08-20T07:18:31;64.27;;;60.03;;
8397;SDS011;4236;54.504;9.588;2023-08-20T07:20:59;67.20;;;62.83;;
8397;SDS011;4236;54.504;9.588;2023-08-20T07:23:26;66.57;;;62.20;;
8397;SDS011;4236;54.504;9.588;2023-08-20T07:26:03;64.63;;;60.33;;
8397;SDS011;4236;54.504;9.588;2023-08-20T07:28:32;62.37;;;58.27;;
8397;SDS011;4236;54.504;9.588;2023-08-20T07:31:15;52.87;;;49.47;;
8397;SDS011;4236;54.504;9.588;2023-08-20T07:33:45;59.80;;;55.90;;
8397;SDS011;4236;54.504;9.588;2023-08-20T07:36:13;55.20;;;51.90;;
8397;SDS011;4236;54.504;9.588;2023-08-20T07:38:42;51.70;;;48.30;;
8397;SDS011;4236;54.504;9.588;2023-08-20T07:41:10;48.17;;;45.17;;
8397;SDS011;4236;54.504;9.588;2023-08-20T07:43:38;48.47;;;45.60;;
8397;SDS011;4236;54.504;9.588;2023-08-20T07:46:07;45.67;;;43.27;;
8397;SDS011;4236;54.504;9.588;2023-08-20T07:48:36;44.80;;;42.13;;
8397;SDS011;4236;54.504;9.588;2023-08-20T07:51:04;43.50;;;41.20;;
8397;SDS011;4236;54.504;9.588;2023-08-20T07:53:33;47.10;;;44.20;;
8397;SDS011;4236;54.504;9.588;2023-08-20T07:56:01;48.40;;;45.47;;
8397;SDS011;4236;54.504;9.588;2023-08-20T07:58:29;47.27;;;44.43;;
8397;SDS011;4236;54.504;9.588;2023-08-20T08:00:56;40.27;;;37.87;;
8397;SDS011;4236;54.504;9.588;2023-08-20T08:03:25;39.63;;;37.63;;
8397;SDS011;4236;54.504;9.588;2023-08-20T08:05:55;38.47;;;36.20;;
8397;SDS011;4236;54.504;9.588;2023-08-20T08:08:23;39.70;;;37.40;;
8397;SDS011;4236;54.504;9.588;2023-08-20T08:10:51;38.53;;;35.93;;
8397;SDS011;4236;54.504;9.588;2023-08-20T08:13:19;37.27;;;35.17;;
8397;SDS011;4236;54.504;9.588;2023-08-20T08:15:48;35.83;;;33.53;;
8397;SDS011;4236;54.504;9.588;2023-08-20T08:18:17;39.57;;;36.97;;
8397;SDS011;4236;54.504;9.588;2023-08-20T08:20:45;36.27;;;34.17;;
8397;SDS011;4236;54.504;9.588;2023-08-20T08:23:15;35.97;;;33.87;;
8397;SDS011;4236;54.504;9.588;2023-08-20T08:25:43;35.80;;;33.80;;
8397;SDS011;4236;54.504;9.588;2023-08-20T08:28:11;36.57;;;34.67;;
8397;SDS011;4236;54.504;9.588;2023-08-20T08:30:38;34.43;;;32.73;;
8397;SDS011;4236;54.504;9.588;2023-08-20T08:33:07;31.87;;;30.10;;
8397;SDS011;4236;54.504;9.588;2023-08-20T08:35:35;31.67;;;29.87;;
8397;SDS011;4236;54.504;9.588;2023-08-20T08:38:03;30.60;;;28.73;;
8397;SDS011;4236;54.504;9.588;2023-08-20T08:40:32;30.10;;;28.40;;
8397;SDS011;4236;54.504;9.588;2023-08-20T08:43:00;29.03;;;27.13;;
8397;SDS011;4236;54.504;9.588;2023-08-20T08:45:29;28.47;;;26.73;;
8397;SDS011;4236;54.504;9.588;2023-08-20T08:48:00;29.47;;;27.87;;
8397;SDS011;4236;54.504;9.588;2023-08-20T08:50:30;28.17;;;26.70;;
8397;SDS011;4236;54.504;9.588;2023-08-20T08:52:59;29.17;;;27.33;;
8397;SDS011;4236;54.504;9.588;2023-08-20T08:55:27;26.77;;;25.17;;
8397;SDS011;4236;54.504;9.588;2023-08-20T08:57:56;27.00;;;25.23;;
8397;SDS011;4236;54.504;9.588;2023-08-20T09:00:23;23.60;;;22.30;;
8397;SDS011;4236;54.504;9.588;2023-08-20T09:02:51;21.63;;;20.43;;
8397;SDS011;4236;54.504;9.588;2023-08-20T09:05:19;23.27;;;21.67;;
8397;SDS011;4236;54.504;9.588;2023-08-20T09:07:47;19.43;;;18.03;;
8397;SDS011;4236;54.504;9.588;2023-08-20T09:10:22;20.50;;;19.37;;
8397;SDS011;4236;54.504;9.588;2023-08-20T09:12:49;21.07;;;19.77;;
8397;SDS011;4236;54.504;9.588;2023-08-20T09:15:18;19.17;;;17.87;;
8397;SDS011;4236;54.504;9.588;2023-08-20T09:17:46;19.43;;;18.17;;
8397;SDS011;4236;54.504;9.588;2023-08-20T09:20:14;20.27;;;18.63;;
8397;SDS011;4236;54.504;9.588;2023-08-20T09:22:46;16.70;;;15.57;;
8397;SDS011;4236;54.504;9.588;2023-08-20T09:25:16;18.33;;;16.90;;
8397;SDS011;4236;54.504;9.588;2023-08-20T09:27:44;16.23;;;15.07;;
8397;SDS011;4236;54.504;9.588;2023-08-20T09:30:12;16.90;;;15.73;;
8397;SDS011;4236;54.504;9.588;2023-08-20T09:32:51;17.00;;;16.10;;
8397;SDS011;4236;54.504;9.588;2023-08-20T09:35:30;17.40;;;16.07;;
8397;SDS011;4236;54.504;9.588;2023-08-20T09:37:58;15.87;;;14.27;;
8397;SDS011;4236;54.504;9.588;2023-08-20T09:40:27;16.07;;;14.70;;
8397;SDS011;4236;54.504;9.588;2023-08-20T09:42:55;13.40;;;12.40;;
8397;SDS011;4236;54.504;9.588;2023-08-20T09:45:26;12.73;;;11.63;;
8397;SDS011;4236;54.504;9.588;2023-08-20T09:47:55;11.00;;;10.30;;
8397;SDS011;4236;54.504;9.588;2023-08-20T09:50:26;12.00;;;11.00;;
8397;SDS011;4236;54.504;9.588;2023-08-20T09:52:56;14.13;;;10.63;;
8397;SDS011;4236;54.504;9.588;2023-08-20T09:55:29;9.73;;;9.13;;
8397;SDS011;4236;54.504;9.588;2023-08-20T09:58:00;9.20;;;8.70;;
8397;SDS011;4236;54.504;9.588;2023-08-20T10:00:31;9.73;;;8.87;;
8397;SDS011;4236;54.504;9.588;2023-08-20T10:02:59;9.33;;;8.73;;
8397;SDS011;4236;54.504;9.588;2023-08-20T10:05:27;9.03;;;8.27;;
8397;SDS011;4236;54.504;9.588;2023-08-20T10:07:55;8.23;;;7.53;;
8397;SDS011;4236;54.504;9.588;2023-08-20T10:10:25;8.80;;;8.10;;
8397;SDS011;4236;54.504;9.588;2023-08-20T10:12:53;8.13;;;7.63;;
8397;SDS011;4236;54.504;9.588;2023-08-20T10:15:22;9.10;;;8.40;;
8397;SDS011;4236;54.504;9.588;2023-08-20T10:17:54;8.53;;;7.73;;
8397;SDS011;4236;54.504;9.588;2023-08-20T10:20:24;7.77;;;7.27;;
8397;SDS011;4236;54.504;9.588;2023-08-20T10:22:59;10.53;;;8.00;;
8397;SDS011;4236;54.504;9.588;2023-08-20T10:25:29;7.83;;;7.07;;
8397;SDS011;4236;54.504;9.588;2023-08-20T10:28:10;6.57;;;6.07;;
8397;SDS011;4236;54.504;9.588;2023-08-20T10:33:35;7.13;;;6.53;;
8397;SDS011;4236;54.504;9.588;2023-08-20T10:36:06;6.57;;;6.13;;
8397;SDS011;4236;54.504;9.588;2023-08-20T10:38:36;5.93;;;5.53;;
8397;SDS011;4236;54.504;9.588;2023-08-20T10:41:07;6.90;;;5.93;;
8397;SDS011;4236;54.504;9.588;2023-08-20T10:43:37;6.70;;;5.50;;
8397;SDS011;4236;54.504;9.588;2023-08-20T10:46:05;6.27;;;5.63;;
8397;SDS011;4236;54.504;9.588;2023-08-20T10:48:38;5.73;;;5.33;;
8397;SDS011;4236;54.504;9.588;2023-08-20T10:51:10;6.10;;;5.70;;
8397;SDS011;4236;54.504;9.588;2023-08-20T10:53:40;6.30;;;5.80;;
8397;SDS011;4236;54.504;9.588;2023-08-20T10:56:10;5.93;;;5.40;;
8397;SDS011;4236;54.504;9.588;2023-08-20T10:58:42;5.97;;;5.53;;
8397;SDS011;4236;54.504;9.588;2023-08-20T11:01:12;5.10;;;4.70;;
8397;SDS011;4236;54.504;9.588;2023-08-20T11:03:43;5.60;;;5.10;;
8397;SDS011;4236;54.504;9.588;2023-08-20T11:06:12;5.80;;;5.30;;
8397;SDS011;4236;54.504;9.588;2023-08-20T11:08:40;7.53;;;5.00;;
8397;SDS011;4236;54.504;9.588;2023-08-20T11:11:09;6.03;;;5.27;;
8397;SDS011;4236;54.504;9.588;2023-08-20T11:13:37;10.47;;;5.67;;
8397;SDS011;4236;54.504;9.588;2023-08-20T11:16:05;8.10;;;4.60;;
8397;SDS011;4236;54.504;9.588;2023-08-20T11:18:34;6.30;;;4.90;;
8397;SDS011;4236;54.504;9.588;2023-08-20T11:21:03;7.63;;;4.70;;
8397;SDS011;4236;54.504;9.588;2023-08-20T11:23:31;7.00;;;4.00;;
8397;SDS011;4236;54.504;9.588;2023-08-20T11:26:00;7.37;;;4.03;;
8397;SDS011;4236;54.504;9.588;2023-08-20T11:28:28;8.50;;;4.47;;
8397;SDS011;4236;54.504;9.588;2023-08-20T11:30:56;6.43;;;4.67;;
8397;SDS011;4236;54.504;9.588;2023-08-20T11:33:24;9.40;;;4.90;;
8397;SDS011;4236;54.504;9.588;2023-08-20T11:35:52;4.50;;;3.80;;
8397;SDS011;4236;54.504;9.588;2023-08-20T11:38:23;7.50;;;4.40;;
8397;SDS011;4236;54.504;9.588;2023-08-20T11:40:51;5.20;;;4.30;;
8397;SDS011;4236;54.504;9.588;2023-08-20T11:43:19;4.90;;;4.17;;
8397;SDS011;4236;54.504;9.588;2023-08-20T11:45:47;5.73;;;4.33;;
8397;SDS011;4236;54.504;9.588;2023-08-20T11:48:16;4.47;;;4.07;;
8397;SDS011;4236;54.504;9.588;2023-08-20T11:50:44;6.47;;;3.90;;
8397;SDS011;4236;54.504;9.588;2023-08-20T11:53:12;5.33;;;3.67;;
8397;SDS011;4236;54.504;9.588;2023-08-20T11:55:41;4.10;;;3.70;;
8397;SDS011;4236;54.504;9.588;2023-08-20T11:58:14;8.43;;;3.90;;
8397;SDS011;4236;54.504;9.588;2023-08-20T12:00:41;3.77;;;3.33;;
8397;SDS011;4236;54.504;9.588;2023-08-20T12:03:09;5.00;;;3.43;;
8397;SDS011;4236;54.504;9.588;2023-08-20T12:05:40;4.47;;;4.03;;
8397;SDS011;4236;54.504;9.588;2023-08-20T12:08:08;6.30;;;4.23;;
8397;SDS011;4236;54.504;9.588;2023-08-20T12:10:45;6.23;;;3.93;;
8397;SDS011;4236;54.504;9.588;2023-08-20T12:13:13;7.00;;;4.57;;
8397;SDS011;4236;54.504;9.588;2023-08-20T12:15:41;6.00;;;4.03;;
8397;SDS011;4236;54.504;9.588;2023-08-20T12:18:09;6.93;;;3.93;;
8397;SDS011;4236;54.504;9.588;2023-08-20T12:20:36;6.07;;;4.20;;
8397;SDS011;4236;54.504;9.588;2023-08-20T12:23:05;5.23;;;4.27;;
8397;SDS011;4236;54.504;9.588;2023-08-20T12:25:34;6.60;;;3.40;;
8397;SDS011;4236;54.504;9.588;2023-08-20T12:28:05;8.40;;;3.70;;
8397;SDS011;4236;54.504;9.588;2023-08-20T12:30:33;7.93;;;3.87;;
8397;SDS011;4236;54.504;9.588;2023-08-20T12:33:04;7.57;;;3.30;;
8397;SDS011;4236;54.504;9.588;2023-08-20T12:35:33;3.87;;;3.53;;
8397;SDS011;4236;54.504;9.588;2023-08-20T12:38:01;6.00;;;3.50;;
8397;SDS011;4236;54.504;9.588;2023-08-20T12:40:29;12.70;;;4.53;;
8397;SDS011;4236;54.504;9.588;2023-08-20T12:42:58;8.83;;;4.20;;
8397;SDS011;4236;54.504;9.588;2023-08-20T12:45:27;8.00;;;4.27;;
8397;SDS011;4236;54.504;9.588;2023-08-20T12:47:54;4.63;;;3.53;;
8397;SDS011;4236;54.504;9.588;2023-08-20T12:50:26;8.03;;;4.73;;
8397;SDS011;4236;54.504;9.588;2023-08-20T12:52:55;7.93;;;4.37;;
8397;SDS011;4236;54.504;9.588;2023-08-20T12:55:23;6.47;;;3.53;;
8397;SDS011;4236;54.504;9.588;2023-08-20T12:57:54;4.97;;;3.73;;
8397;SDS011;4236;54.504;9.588;2023-08-20T13:00:23;5.63;;;3.73;;
8397;SDS011;4236;54.504;9.588;2023-08-20T13:02:54;8.13;;;3.90;;
8397;SDS011;4236;54.504;9.588;2023-08-20T13:05:22;7.20;;;3.60;;
8397;SDS011;4236;54.504;9.588;2023-08-20T13:07:51;7.73;;;4.17;;
8397;SDS011;4236;54.504;9.588;2023-08-20T13:10:20;6.37;;;4.23;;
8397;SDS011;4236;54.504;9.588;2023-08-20T13:12:49;5.93;;;3.40;;
8397;SDS011;4236;54.504;9.588;2023-08-20T13:15:20;4.13;;;3.80;;
8397;SDS011;4236;54.504;9.588;2023-08-20T13:17:51;8.03;;;4.50;;
8397;SDS011;4236;54.504;9.588;2023-08-20T13:20:20;4.13;;;3.47;;
8397;SDS011;4236;54.504;9.588;2023-08-20T13:22:50;7.20;;;3.47;;
8397;SDS011;4236;54.504;9.588;2023-08-20T13:25:19;6.10;;;3.73;;
8397;SDS011;4236;54.504;9.588;2023-08-20T13:27:47;5.77;;;3.63;;
8397;SDS011;4236;54.504;9.588;2023-08-20T13:30:15;4.73;;;3.50;;
8397;SDS011;4236;54.504;9.588;2023-08-20T13:32:44;7.43;;;4.03;;
8397;SDS011;4236;54.504;9.588;2023-08-20T13:35:12;8.90;;;4.07;;
8397;SDS011;4236;54.504;9.588;2023-08-20T13:37:42;8.77;;;4.20;;
8397;SDS011;4236;54.504;9.588;2023-08-20T13:40:10;7.10;;;4.10;;
8397;SDS011;4236;54.504;9.588;2023-08-20T13:42:38;12.10;;;4.37;;
8397;SDS011;4236;54.504;9.588;2023-08-20T13:45:06;7.20;;;4.03;;
8397;SDS011;4236;54.504;9.588;2023-08-20T13:47:35;4.00;;;3.70;;
8397;SDS011;4236;54.504;9.588;2023-08-20T13:50:03;5.93;;;4.27;;
8397;SDS011;4236;54.504;9.588;2023-08-20T13:52:31;7.23;;;4.23;;
8397;SDS011;4236;54.504;9.588;2023-08-20T13:55:01;8.57;;;4.10;;
8397;SDS011;4236;54.504;9.588;2023-08-20T13:57:29;4.63;;;4.03;;
8397;SDS011;4236;54.504;9.588;2023-08-20T13:59:57;7.17;;;4.20;;
8397;SDS011;4236;54.504;9.588;2023-08-20T14:02:25;7.97;;;4.27;;
8397;SDS011;4236;54.504;9.588;2023-08-20T14:04:53;6.03;;;3.50;;
8397;SDS011;4236;54.504;9.588;2023-08-20T14:07:21;7.50;;;3.50;;
8397;SDS011;4236;54.504;9.588;2023-08-20T14:09:50;4.43;;;3.20;;
8397;SDS011;4236;54.504;9.588;2023-08-20T14:12:19;8.00;;;4.30;;
8397;SDS011;4236;54.504;9.588;2023-08-20T14:14:47;4.20;;;3.43;;
8397;SDS011;4236;54.504;9.588;2023-08-20T14:17:15;6.23;;;3.70;;
8397;SDS011;4236;54.504;9.588;2023-08-20T14:19:43;7.27;;;4.33;;
8397;SDS011;4236;54.504;9.588;2023-08-20T14:22:11;6.50;;;4.30;;
8397;SDS011;4236;54.504;9.588;2023-08-20T14:24:38;8.10;;;4.30;;
8397;SDS011;4236;54.504;9.588;2023-08-20T14:27:06;13.53;;;4.80;;
8397;SDS011;4236;54.504;9.588;2023-08-20T14:29:35;12.83;;;4.30;;
8397;SDS011;4236;54.504;9.588;2023-08-20T14:32:04;5.90;;;3.70;;
8397;SDS011;4236;54.504;9.588;2023-08-20T14:34:31;5.40;;;4.30;;
8397;SDS011;4236;54.504;9.588;2023-08-20T14:36:59;8.00;;;4.63;;
8397;SDS011;4236;54.504;9.588;2023-08-20T14:39:27;9.07;;;4.63;;
8397;SDS011;4236;54.504;9.588;2023-08-20T14:41:57;7.67;;;4.40;;
8397;SDS011;4236;54.504;9.588;2023-08-20T14:44:25;5.57;;;4.17;;
8397;SDS011;4236;54.504;9.588;2023-08-20T14:46:54;4.90;;;3.27;;
8397;SDS011;4236;54.504;9.588;2023-08-20T14:49:22;6.30;;;3.40;;
8397;SDS011;4236;54.504;9.588;2023-08-20T14:51:50;7.07;;;4.43;;
8397;SDS011;4236;54.504;9.588;2023-08-20T14:54:22;7.63;;;4.80;;
8397;SDS011;4236;54.504;9.588;2023-08-20T14:56:50;5.97;;;3.27;;
8397;SDS011;4236;54.504;9.588;2023-08-20T14:59:18;9.20;;;3.90;;